Time;durP1;ratioP1;P1;durP2;ratioP2;P2;SDS_P1;SDS_P2;PMS_P1;PMS_P2;Temp;Humidity;BMP_temperature;BMP_pressure;BME280_temperature;BME280_humidity;BME280_pressure;Samples;Min_cycle;Max_cycle;Signal;HPM_P1;HPM_P2
2023/09/13 00:01:51;;;;;;;5.82;1.17;;;;;;;;;;5010427;28;20068;-75
2023/09/13 00:04:17;;;;;;;0.88;0.75;;;;;;;;;;5009318;28;20034;-75
2023/09/13 00:06:43;;;;;;;1.15;1.00;;;;;;;;;;5005724;28;20041;-75
2023/09/13 00:09:09;;;;;;;1.30;1.20;;;;;;;;;;5003174;28;20030;-75
2023/09/13 00:11:37;;;;;;;0.77;0.77;;;;;;;;;;5004525;28;20027;-75
2023/09/13 00:14:03;;;;;;;1.20;1.10;;;;;;;;;;5003018;28;20036;-75
2023/09/13 00:16:29;;;;;;;1.27;1.17;;;;;;;;;;5003964;28;20421;-75
2023/09/13 00:18:56;;;;;;;1.08;0.95;;;;;;;;;;5007837;28;20038;-75
2023/09/13 00:21:21;;;;;;;1.98;1.45;;;;;;;;;;5006363;28;20079;-75
2023/09/13 00:23:47;;;;;;;0.98;0.85;;;;;;;;;;5001477;28;20432;-75
2023/09/13 00:26:14;;;;;;;1.65;0.90;;;;;;;;;;5005460;28;20015;-76
2023/09/13 00:28:40;;;;;;;3.22;1.38;;;;;;;;;;5006224;28;20247;-75
2023/09/13 00:31:09;;;;;;;1.73;1.13;;;;;;;;;;5005692;28;20032;-75
2023/09/13 00:33:35;;;;;;;2.58;1.10;;;;;;;;;;5002563;28;20057;-75
2023/09/13 00:36:01;;;;;;;1.17;1.05;;;;;;;;;;5002823;28;20519;-75
2023/09/13 00:38:27;;;;;;;1.50;1.00;;;;;;;;;;5004774;28;20022;-75
2023/09/13 00:40:53;;;;;;;1.10;1.00;;;;;;;;;;5005078;28;20037;-75
2023/09/13 00:43:19;;;;;;;1.73;1.27;;;;;;;;;;5003398;28;20592;-75
2023/09/13 00:45:46;;;;;;;1.20;1.00;;;;;;;;;;5003670;28;20077;-76
2023/09/13 00:48:12;;;;;;;1.45;1.25;;;;;;;;;;5007504;28;20032;-76
2023/09/13 00:50:38;;;;;;;1.65;1.35;;;;;;;;;;4982979;28;20030;-75
2023/09/13 00:53:04;;;;;;;1.33;1.13;;;;;;;;;;5004344;28;20038;-76
2023/09/13 00:55:32;;;;;;;1.35;1.08;;;;;;;;;;5006331;28;20052;-76
2023/09/13 00:57:58;;;;;;;1.08;0.98;;;;;;;;;;5003817;28;20042;-75
2023/09/13 01:00:24;;;;;;;1.67;1.30;;;;;;;;;;5004716;28;20025;-76
2023/09/13 01:02:50;;;;;;;1.50;1.20;;;;;;;;;;4998306;28;20109;-76
2023/09/13 01:05:17;;;;;;;1.27;1.02;;;;;;;;;;5006061;28;20092;-76
2023/09/13 01:07:43;;;;;;;1.67;1.17;;;;;;;;;;4999350;28;20026;-76
2023/09/13 01:10:10;;;;;;;2.05;1.52;;;;;;;;;;5003507;28;20113;-76
2023/09/13 01:12:36;;;;;;;2.58;1.23;;;;;;;;;;5006317;28;20033;-76
2023/09/13 01:15:06;;;;;;;1.23;1.13;;;;;;;;;;4999643;28;20424;-75
2023/09/13 01:17:54;;;;;;;1.30;1.20;;;;;;;;;;5006180;28;20046;-75
2023/09/13 01:20:23;;;;;;;1.50;1.10;;;;;;;;;;5004249;28;20056;-76
2023/09/13 01:23:01;;;;;;;1.55;1.15;;;;;;;;;;5001236;28;20381;-76
2023/09/13 01:25:46;;;;;;;1.45;1.25;;;;;;;;;;5007370;28;20141;-76
2023/09/13 01:28:15;;;;;;;1.98;1.30;;;;;;;;;;5002477;28;20026;-76
2023/09/13 01:30:42;;;;;;;1.30;1.17;;;;;;;;;;5004628;28;20041;-76
2023/09/13 01:33:08;;;;;;;1.30;1.05;;;;;;;;;;4999415;28;20033;-75
2023/09/13 01:35:34;;;;;;;2.28;1.60;;;;;;;;;;5000510;28;20555;-76
2023/09/13 01:38:00;;;;;;;2.67;1.35;;;;;;;;;;5003184;28;20156;-75
2023/09/13 01:40:27;;;;;;;1.65;1.17;;;;;;;;;;4999374;28;20037;-75
2023/09/13 01:42:56;;;;;;;1.65;1.40;;;;;;;;;;4999870;28;20041;-75
2023/09/13 01:45:23;;;;;;;1.67;1.42;;;;;;;;;;5004209;28;20040;-76
2023/09/13 01:47:49;;;;;;;4.18;1.17;;;;;;;;;;5004076;28;20025;-76
2023/09/13 01:50:15;;;;;;;2.05;1.40;;;;;;;;;;5006112;28;20022;-76
2023/09/13 01:52:41;;;;;;;1.73;1.38;;;;;;;;;;5006809;28;20018;-75
2023/09/13 01:55:08;;;;;;;1.60;1.38;;;;;;;;;;5008914;28;20056;-75
2023/09/13 01:57:34;;;;;;;4.10;1.30;;;;;;;;;;5010443;28;20040;-76
2023/09/13 02:00:00;;;;;;;1.98;1.70;;;;;;;;;;4997654;28;20018;-76
2023/09/13 02:02:26;;;;;;;1.77;1.48;;;;;;;;;;5010034;28;20033;-76
2023/09/13 02:04:52;;;;;;;2.42;1.50;;;;;;;;;;5011311;28;20404;-76
2023/09/13 02:07:18;;;;;;;2.45;1.40;;;;;;;;;;5010776;28;20021;-76
2023/09/13 02:09:44;;;;;;;1.73;1.58;;;;;;;;;;5010102;28;20038;-77
2023/09/13 02:12:12;;;;;;;2.22;1.40;;;;;;;;;;5009701;28;20061;-76
2023/09/13 02:14:38;;;;;;;2.10;1.35;;;;;;;;;;4998574;28;20026;-76
2023/09/13 02:17:04;;;;;;;1.88;1.30;;;;;;;;;;5006313;28;20096;-76
2023/09/13 02:19:30;;;;;;;4.18;1.48;;;;;;;;;;5006601;28;20037;-76
2023/09/13 02:21:56;;;;;;;2.17;1.17;;;;;;;;;;5001349;28;20092;-76
2023/09/13 02:24:22;;;;;;;1.10;1.00;;;;;;;;;;5010349;28;20036;-76
2023/09/13 02:26:48;;;;;;;2.95;1.55;;;;;;;;;;5007069;28;20508;-76
2023/09/13 02:29:14;;;;;;;0.98;0.95;;;;;;;;;;5009497;28;20389;-77
2023/09/13 02:31:40;;;;;;;2.65;1.48;;;;;;;;;;5007223;28;20119;-76
2023/09/13 02:34:06;;;;;;;1.00;0.95;;;;;;;;;;5000279;28;20033;-76
2023/09/13 02:36:32;;;;;;;1.30;1.15;;;;;;;;;;5009409;28;20037;-76
2023/09/13 02:38:59;;;;;;;1.70;1.10;;;;;;;;;;5007845;28;20026;-76
2023/09/13 02:41:25;;;;;;;3.00;1.20;;;;;;;;;;5006903;28;20388;-76
2023/09/13 02:43:51;;;;;;;1.05;1.00;;;;;;;;;;5007093;28;20022;-76
2023/09/13 02:46:17;;;;;;;1.85;1.10;;;;;;;;;;5008093;28;20534;-76
2023/09/13 02:48:43;;;;;;;1.10;0.88;;;;;;;;;;5009396;28;20034;-76
2023/09/13 02:51:13;;;;;;;1.75;1.08;;;;;;;;;;5010550;28;20045;-76
2023/09/13 02:53:39;;;;;;;1.27;1.00;;;;;;;;;;4996665;28;20107;-76
2023/09/13 02:56:06;;;;;;;2.58;1.02;;;;;;;;;;5004884;28;20044;-76
2023/09/13 02:58:32;;;;;;;1.98;1.15;;;;;;;;;;5004066;28;20404;-76
2023/09/13 03:00:58;;;;;;;2.80;1.35;;;;;;;;;;5007392;28;20041;-77
2023/09/13 03:03:24;;;;;;;1.00;0.90;;;;;;;;;;5005384;28;20034;-76
2023/09/13 03:05:50;;;;;;;0.90;0.88;;;;;;;;;;5012109;28;20049;-76
2023/09/13 03:08:16;;;;;;;1.45;1.08;;;;;;;;;;5012820;28;20075;-75
2023/09/13 03:10:42;;;;;;;0.98;0.80;;;;;;;;;;5009747;28;20034;-76
2023/09/13 03:13:08;;;;;;;1.15;0.88;;;;;;;;;;5009417;28;20022;-76
2023/09/13 03:15:34;;;;;;;0.82;0.82;;;;;;;;;;5009968;28;20041;-76
2023/09/13 03:18:00;;;;;;;1.05;0.90;;;;;;;;;;5009676;28;20087;-76
2023/09/13 03:20:26;;;;;;;0.65;0.55;;;;;;;;;;5015208;28;20021;-76
2023/09/13 03:22:54;;;;;;;2.38;1.25;;;;;;;;;;5008463;28;20048;-76
2023/09/13 03:25:20;;;;;;;0.68;0.68;;;;;;;;;;5009034;28;20050;-76
2023/09/13 03:27:48;;;;;;;1.63;1.20;;;;;;;;;;5007046;28;20035;-76
2023/09/13 03:30:14;;;;;;;0.77;0.77;;;;;;;;;;5009065;28;20187;-76
2023/09/13 03:32:40;;;;;;;1.05;0.82;;;;;;;;;;5009000;28;20133;-76
2023/09/13 03:35:06;;;;;;;1.88;1.08;;;;;;;;;;5008591;28;20026;-76
2023/09/13 03:37:33;;;;;;;1.15;1.00;;;;;;;;;;5009068;28;20541;-76
2023/09/13 03:39:59;;;;;;;1.40;1.30;;;;;;;;;;5007761;28;20092;-76
2023/09/13 03:42:25;;;;;;;1.80;1.02;;;;;;;;;;5006743;28;20026;-77
2023/09/13 03:44:51;;;;;;;1.20;1.10;;;;;;;;;;5009069;28;20018;-76
2023/09/13 03:47:17;;;;;;;3.05;1.27;;;;;;;;;;5007157;28;20026;-76
2023/09/13 03:49:43;;;;;;;1.60;1.27;;;;;;;;;;5009681;28;20540;-76
2023/09/13 03:52:09;;;;;;;0.95;0.90;;;;;;;;;;5010991;28;20026;-76
2023/09/13 03:54:35;;;;;;;3.33;1.02;;;;;;;;;;5009895;28;20523;-77
2023/09/13 03:57:01;;;;;;;1.40;1.02;;;;;;;;;;5011575;28;20110;-76
2023/09/13 03:59:27;;;;;;;1.23;1.13;;;;;;;;;;5010627;28;20392;-76
2023/09/13 04:01:53;;;;;;;0.93;0.90;;;;;;;;;;5008154;28;20475;-76
2023/09/13 04:04:19;;;;;;;0.77;0.77;;;;;;;;;;5008252;28;20042;-76
2023/09/13 04:06:45;;;;;;;0.80;0.75;;;;;;;;;;5017590;28;20022;-76
2023/09/13 04:09:10;;;;;;;1.10;0.93;;;;;;;;;;5013694;28;20048;-76
2023/09/13 04:11:36;;;;;;;1.50;1.00;;;;;;;;;;4996381;28;20481;-76
2023/09/13 04:14:04;;;;;;;1.27;1.17;;;;;;;;;;5017958;28;20021;-77
2023/09/13 04:16:30;;;;;;;2.25;0.80;;;;;;;;;;5012744;28;20146;-76
2023/09/13 04:18:55;;;;;;;1.48;1.10;;;;;;;;;;5005281;28;20521;-77
2023/09/13 04:21:21;;;;;;;0.75;0.65;;;;;;;;;;5014279;28;20520;-76
2023/09/13 04:23:47;;;;;;;0.98;0.93;;;;;;;;;;5012076;28;20014;-75
2023/09/13 04:26:20;;;;;;;1.10;1.00;;;;;;;;;;5006336;28;20034;-76
2023/09/13 04:28:46;;;;;;;0.80;0.80;;;;;;;;;;5005523;28;20388;-76
2023/09/13 04:31:12;;;;;;;1.25;1.00;;;;;;;;;;5014552;28;20026;-76
2023/09/13 04:33:45;;;;;;;1.23;1.00;;;;;;;;;;5019022;28;20519;-76
2023/09/13 04:36:10;;;;;;;1.20;1.10;;;;;;;;;;5017001;28;20030;-76
2023/09/13 04:38:36;;;;;;;2.25;1.10;;;;;;;;;;5014134;28;20033;-76
2023/09/13 04:41:03;;;;;;;3.60;1.35;;;;;;;;;;5014610;28;20045;-76
2023/09/13 04:43:29;;;;;;;0.95;0.88;;;;;;;;;;5014578;28;20041;-76
2023/09/13 04:45:55;;;;;;;0.90;0.90;;;;;;;;;;5007252;28;20029;-76
2023/09/13 04:48:21;;;;;;;0.90;0.77;;;;;;;;;;5014925;28;20032;-75
2023/09/13 04:50:47;;;;;;;0.90;0.88;;;;;;;;;;5012991;28;20539;-77
2023/09/13 04:53:13;;;;;;;1.05;0.88;;;;;;;;;;5023199;28;20033;-77
2023/09/13 04:55:40;;;;;;;1.98;1.17;;;;;;;;;;5010305;28;20045;-76
2023/09/13 04:58:06;;;;;;;1.45;1.10;;;;;;;;;;5013850;28;20084;-76
2023/09/13 05:00:32;;;;;;;1.25;1.10;;;;;;;;;;5007629;28;20018;-76
2023/09/13 05:02:58;;;;;;;1.38;1.00;;;;;;;;;;5012341;28;20022;-76
2023/09/13 05:05:24;;;;;;;1.05;0.90;;;;;;;;;;5012773;28;20042;-76
2023/09/13 05:07:50;;;;;;;1.00;0.80;;;;;;;;;;5016182;28;20029;-76
2023/09/13 05:10:16;;;;;;;1.58;0.90;;;;;;;;;;5010786;28;20671;-76
2023/09/13 05:12:42;;;;;;;2.08;1.10;;;;;;;;;;5003866;28;20030;-76
2023/09/13 05:15:08;;;;;;;1.95;1.10;;;;;;;;;;5001520;28;20049;-76
2023/09/13 05:17:34;;;;;;;1.27;1.08;;;;;;;;;;5011060;28;20116;-76
2023/09/13 05:20:00;;;;;;;1.00;0.90;;;;;;;;;;5013584;28;20109;-76
2023/09/13 05:22:26;;;;;;;0.98;0.88;;;;;;;;;;5005440;28;20499;-76
2023/09/13 05:24:52;;;;;;;1.77;1.08;;;;;;;;;;5001888;28;20021;-76
2023/09/13 05:27:18;;;;;;;1.13;0.88;;;;;;;;;;5011955;28;20536;-76
2023/09/13 05:29:44;;;;;;;1.10;1.00;;;;;;;;;;5013638;28;20688;-76
2023/09/13 05:32:10;;;;;;;2.13;1.40;;;;;;;;;;5018217;28;20030;-76
2023/09/13 05:34:36;;;;;;;3.22;1.00;;;;;;;;;;5012588;28;20524;-76
2023/09/13 05:37:02;;;;;;;2.05;0.90;;;;;;;;;;5020016;28;20484;-76
2023/09/13 05:39:28;;;;;;;0.77;0.77;;;;;;;;;;5017543;28;20034;-76
2023/09/13 05:41:55;;;;;;;0.88;0.80;;;;;;;;;;5016758;28;20018;-76
2023/09/13 05:44:23;;;;;;;1.25;1.15;;;;;;;;;;5021186;28;20103;-76
2023/09/13 05:46:52;;;;;;;0.93;0.90;;;;;;;;;;5014502;28;20365;-75
2023/09/13 05:49:18;;;;;;;1.20;0.90;;;;;;;;;;5010085;28;20104;-76
2023/09/13 05:51:45;;;;;;;1.52;1.40;;;;;;;;;;5010443;28;20041;-76
2023/09/13 05:54:11;;;;;;;1.25;1.00;;;;;;;;;;5010932;28;20104;-76
2023/09/13 05:56:37;;;;;;;1.58;0.90;;;;;;;;;;4999001;28;20036;-76
2023/09/13 05:59:03;;;;;;;1.52;1.00;;;;;;;;;;5018476;28;20079;-76
2023/09/13 06:01:30;;;;;;;1.48;1.02;;;;;;;;;;5015982;28;20461;-76
2023/09/13 06:03:56;;;;;;;1.48;1.00;;;;;;;;;;5015499;28;20172;-76
2023/09/13 06:06:22;;;;;;;1.98;1.13;;;;;;;;;;5008275;28;20504;-76
2023/09/13 06:08:48;;;;;;;1.13;0.90;;;;;;;;;;5008139;28;20022;-76
2023/09/13 06:11:16;;;;;;;1.30;0.88;;;;;;;;;;5003736;28;20034;-76
2023/09/13 06:13:42;;;;;;;1.67;1.50;;;;;;;;;;5000585;28;20244;-76
2023/09/13 06:16:08;;;;;;;4.70;1.20;;;;;;;;;;5001180;28;20179;-75
2023/09/13 06:18:34;;;;;;;1.73;1.38;;;;;;;;;;4997829;28;20017;-75
2023/09/13 06:21:00;;;;;;;2.25;1.60;;;;;;;;;;5009849;28;20044;-75
2023/09/13 06:23:33;;;;;;;4.50;1.58;;;;;;;;;;5005658;28;20025;-75
2023/09/13 06:25:59;;;;;;;2.13;1.13;;;;;;;;;;5005638;28;20317;-76
2023/09/13 06:28:25;;;;;;;2.38;1.40;;;;;;;;;;5007223;28;20392;-75
2023/09/13 06:30:51;;;;;;;3.65;2.38;;;;;;;;;;4996575;28;20031;-76
2023/09/13 06:33:17;;;;;;;1.92;1.27;;;;;;;;;;4998650;28;20121;-76
2023/09/13 06:35:43;;;;;;;1.00;0.90;;;;;;;;;;4995697;28;20497;-76
2023/09/13 06:38:10;;;;;;;3.70;2.13;;;;;;;;;;5007554;28;20388;-76
2023/09/13 06:40:39;;;;;;;3.70;1.73;;;;;;;;;;4997712;28;20056;-75
2023/09/13 06:43:05;;;;;;;2.17;1.88;;;;;;;;;;5004824;28;20029;-75
2023/09/13 06:45:31;;;;;;;2.75;2.33;;;;;;;;;;5007135;28;20037;-75
2023/09/13 06:47:56;;;;;;;2.80;2.00;;;;;;;;;;5005295;28;20026;-75
2023/09/13 06:50:22;;;;;;;5.82;2.47;;;;;;;;;;5007850;28;20045;-75
2023/09/13 06:52:48;;;;;;;2.03;1.80;;;;;;;;;;5009089;28;20025;-75
2023/09/13 06:55:14;;;;;;;1.90;1.70;;;;;;;;;;5007505;28;20040;-75
2023/09/13 06:57:40;;;;;;;3.00;1.98;;;;;;;;;;5005032;28;20053;-75
2023/09/13 07:00:08;;;;;;;1.90;1.60;;;;;;;;;;5008418;28;20040;-75
2023/09/13 07:02:34;;;;;;;2.20;1.65;;;;;;;;;;5005296;28;20049;-74
2023/09/13 07:05:00;;;;;;;2.08;1.48;;;;;;;;;;5004030;28;20085;-75
2023/09/13 07:07:26;;;;;;;3.15;2.25;;;;;;;;;;5000289;28;20473;-82
2023/09/13 07:09:52;;;;;;;2.88;2.00;;;;;;;;;;5005574;28;20030;-83
2023/09/13 07:12:18;;;;;;;2.20;1.77;;;;;;;;;;5009610;28;20041;-75
2023/09/13 07:14:47;;;;;;;2.78;1.90;;;;;;;;;;5006312;28;20068;-76
2023/09/13 07:17:17;;;;;;;4.50;1.80;;;;;;;;;;5001432;28;20109;-75
2023/09/13 07:19:43;;;;;;;2.53;1.98;;;;;;;;;;5005180;28;20622;-75
2023/09/13 07:22:09;;;;;;;2.67;1.67;;;;;;;;;;5005197;28;20030;-76
2023/09/13 07:24:35;;;;;;;1.23;1.13;;;;;;;;;;5008558;28;20384;-74
2023/09/13 07:27:01;;;;;;;3.08;2.13;;;;;;;;;;5002195;28;20032;-74
2023/09/13 07:29:27;;;;;;;2.25;1.48;;;;;;;;;;5003522;28;20113;-74
2023/09/13 07:31:53;;;;;;;2.63;1.60;;;;;;;;;;5009505;28;20038;-74
2023/09/13 07:34:20;;;;;;;1.92;1.67;;;;;;;;;;4991939;28;20108;-74
2023/09/13 07:36:46;;;;;;;2.53;1.80;;;;;;;;;;5001776;28;20076;-74
2023/09/13 07:39:12;;;;;;;1.88;1.70;;;;;;;;;;4991795;28;20465;-74
2023/09/13 07:41:38;;;;;;;1.85;1.27;;;;;;;;;;4990857;28;20033;-73
2023/09/13 07:44:04;;;;;;;2.42;1.65;;;;;;;;;;5005516;28;20475;-75
2023/09/13 07:46:30;;;;;;;2.08;1.45;;;;;;;;;;5002590;28;20033;-74
2023/09/13 07:48:56;;;;;;;2.80;1.45;;;;;;;;;;5007088;28;20121;-75
2023/09/13 07:51:22;;;;;;;2.30;1.23;;;;;;;;;;5004233;28;20389;-74
2023/09/13 07:53:48;;;;;;;1.95;1.70;;;;;;;;;;5000993;28;20888;-74
2023/09/13 07:56:14;;;;;;;2.25;1.40;;;;;;;;;;5006189;28;20029;-81
2023/09/13 07:58:41;;;;;;;1.60;1.25;;;;;;;;;;5002870;28;20454;-81
2023/09/13 08:01:07;;;;;;;3.42;1.95;;;;;;;;;;5008189;28;20528;-81
2023/09/13 08:03:33;;;;;;;1.40;1.10;;;;;;;;;;5005797;28;20117;-81
2023/09/13 08:06:03;;;;;;;1.40;1.02;;;;;;;;;;5017115;28;20075;-80
2023/09/13 08:08:30;;;;;;;5.78;1.38;;;;;;;;;;5010855;28;20084;-80
2023/09/13 08:10:56;;;;;;;2.42;1.48;;;;;;;;;;5023376;28;20041;-81
2023/09/13 08:13:23;;;;;;;2.00;1.35;;;;;;;;;;5002164;28;20129;-80
2023/09/13 08:15:51;;;;;;;1.73;1.30;;;;;;;;;;5011576;28;20029;-80
2023/09/13 08:18:18;;;;;;;2.65;1.52;;;;;;;;;;5007659;28;20044;-80
2023/09/13 08:20:44;;;;;;;1.95;1.35;;;;;;;;;;5022235;28;20038;-80
2023/09/13 08:23:10;;;;;;;1.20;1.10;;;;;;;;;;5000883;28;20392;-80
2023/09/13 08:25:36;;;;;;;1.42;1.08;;;;;;;;;;5013497;28;20017;-80
2023/09/13 08:28:03;;;;;;;2.15;1.60;;;;;;;;;;5014788;28;20152;-81
2023/09/13 08:30:29;;;;;;;1.98;1.25;;;;;;;;;;5024391;28;20021;-80
2023/09/13 08:32:55;;;;;;;1.77;1.40;;;;;;;;;;5013000;28;20026;-80
2023/09/13 08:35:21;;;;;;;2.60;1.25;;;;;;;;;;5020107;28;20030;-80
2023/09/13 08:37:48;;;;;;;1.80;1.38;;;;;;;;;;5019503;28;20412;-80
2023/09/13 08:40:14;;;;;;;1.98;1.40;;;;;;;;;;5014957;28;20034;-74
2023/09/13 08:42:40;;;;;;;1.77;1.58;;;;;;;;;;4991904;28;20030;-74
2023/09/13 08:45:07;;;;;;;1.58;1.15;;;;;;;;;;5003041;28;20022;-74
2023/09/13 08:47:36;;;;;;;1.77;1.45;;;;;;;;;;5009399;28;20030;-74
2023/09/13 08:50:03;;;;;;;3.72;1.67;;;;;;;;;;5012216;28;20033;-74
2023/09/13 08:52:30;;;;;;;1.58;1.33;;;;;;;;;;4999767;28;20428;-74
2023/09/13 08:54:57;;;;;;;1.52;1.17;;;;;;;;;;5010298;28;20113;-74
2023/09/13 08:57:25;;;;;;;2.60;1.33;;;;;;;;;;5016069;28;20029;-83
2023/09/13 08:59:51;;;;;;;2.20;1.50;;;;;;;;;;5012396;28;20037;-74
2023/09/13 09:02:21;;;;;;;1.88;1.42;;;;;;;;;;5006516;28;20018;-73
2023/09/13 09:04:48;;;;;;;2.60;1.13;;;;;;;;;;5017854;28;20554;-74
2023/09/13 09:07:15;;;;;;;1.40;1.20;;;;;;;;;;5015656;28;20025;-74
2023/09/13 09:09:41;;;;;;;1.30;1.20;;;;;;;;;;5004543;28;20034;-74
2023/09/13 09:12:08;;;;;;;3.05;1.42;;;;;;;;;;5020554;28;20448;-74
2023/09/13 09:17:42;;;;;;;1.98;0.95;;;;;;;;;;4987012;28;20125;-74
2023/09/13 09:20:08;;;;;;;1.48;1.17;;;;;;;;;;4988888;28;20034;-74
2023/09/13 09:22:35;;;;;;;2.67;1.85;;;;;;;;;;4988933;28;20030;-74
2023/09/13 09:25:01;;;;;;;3.05;1.52;;;;;;;;;;4988861;28;20033;-74
2023/09/13 09:27:27;;;;;;;1.23;1.13;;;;;;;;;;4989013;28;20026;-74
2023/09/13 09:29:59;;;;;;;1.88;1.38;;;;;;;;;;4988913;28;20056;-74
2023/09/13 09:32:28;;;;;;;1.70;1.20;;;;;;;;;;4988610;28;20069;-74
2023/09/13 09:34:54;;;;;;;2.00;1.10;;;;;;;;;;4989017;28;20034;-72
2023/09/13 09:37:28;;;;;;;4.72;1.40;;;;;;;;;;4988489;28;20034;-74
2023/09/13 09:39:54;;;;;;;1.42;1.27;;;;;;;;;;4988879;28;20040;-75
2023/09/13 09:42:20;;;;;;;3.88;1.75;;;;;;;;;;4988378;28;20050;-75
2023/09/13 09:44:46;;;;;;;1.40;1.00;;;;;;;;;;4988947;28;20030;-74
2023/09/13 09:47:15;;;;;;;1.92;1.20;;;;;;;;;;4988361;28;20023;-74
2023/09/13 09:49:49;;;;;;;2.80;1.75;;;;;;;;;;4988586;28;20042;-74
2023/09/13 09:52:15;;;;;;;2.85;1.58;;;;;;;;;;4988605;28;20026;-74
2023/09/13 09:54:47;;;;;;;0.75;0.75;;;;;;;;;;4994228;28;20029;-74
2023/09/13 09:57:21;;;;;;;1.30;1.00;;;;;;;;;;5008022;28;20480;-75
2023/09/13 09:59:47;;;;;;;1.30;1.08;;;;;;;;;;5008185;28;20037;-74
2023/09/13 10:02:13;;;;;;;0.75;0.75;;;;;;;;;;5008043;28;20018;-75
2023/09/13 10:04:45;;;;;;;5.25;1.35;;;;;;;;;;5007781;28;20052;-74
2023/09/13 10:07:12;;;;;;;3.75;1.10;;;;;;;;;;5008071;28;20026;-75
2023/09/13 10:09:41;;;;;;;2.92;1.65;;;;;;;;;;5008172;28;20167;-75
2023/09/13 10:12:09;;;;;;;1.52;1.17;;;;;;;;;;5008065;28;20030;-74
2023/09/13 10:14:35;;;;;;;4.32;1.00;;;;;;;;;;5010410;28;20104;-75
2023/09/13 10:17:03;;;;;;;1.85;1.10;;;;;;;;;;5011498;28;20037;-75
2023/09/13 10:19:30;;;;;;;1.83;1.30;;;;;;;;;;5011318;28;20037;-74
2023/09/13 10:21:56;;;;;;;2.45;1.30;;;;;;;;;;5008636;28;20026;-74
2023/09/13 10:24:29;;;;;;;2.10;1.05;;;;;;;;;;5004953;28;20030;-81
2023/09/13 10:26:56;;;;;;;2.65;1.10;;;;;;;;;;5000074;28;20080;-75
2023/09/13 10:29:25;;;;;;;0.98;0.82;;;;;;;;;;5004679;28;20110;-74
2023/09/13 10:31:51;;;;;;;0.93;0.80;;;;;;;;;;4992255;28;20252;-75
2023/09/13 10:34:26;;;;;;;3.70;1.20;;;;;;;;;;5005113;28;20088;-75
2023/09/13 10:37:04;;;;;;;2.88;0.93;;;;;;;;;;5002187;28;20373;-75
2023/09/13 10:39:31;;;;;;;0.95;0.75;;;;;;;;;;5003324;28;20095;-75
2023/09/13 10:42:04;;;;;;;0.75;0.75;;;;;;;;;;5006278;28;20030;-75
2023/09/13 10:44:31;;;;;;;3.30;1.30;;;;;;;;;;5001091;28;20030;-75
2023/09/13 10:46:57;;;;;;;1.15;1.02;;;;;;;;;;5002626;28;20049;-75
2023/09/13 10:49:26;;;;;;;0.93;0.85;;;;;;;;;;5004922;28;20026;-75
2023/09/13 10:51:54;;;;;;;3.20;1.52;;;;;;;;;;5009215;28;20100;-75
2023/09/13 10:54:21;;;;;;;1.10;1.00;;;;;;;;;;5003093;28;20037;-75
2023/09/13 10:56:48;;;;;;;1.02;0.88;;;;;;;;;;5008570;28;20029;-75
2023/09/13 10:59:19;;;;;;;0.80;0.70;;;;;;;;;;5000192;28;20065;-75
2023/09/13 11:01:48;;;;;;;;;;;;;;;;;;5011374;28;20022;-74
2023/09/13 11:04:14;;;;;;;1.10;1.00;;;;;;;;;;5010932;28;19928;-74
2023/09/13 11:06:41;;;;;;;1.17;1.08;;;;;;;;;;5011027;28;20354;-74
2023/09/13 11:09:14;;;;;;;1.45;0.90;;;;;;;;;;5011137;28;20022;-75
2023/09/13 11:11:45;;;;;;;1.23;1.13;;;;;;;;;;5010833;28;20113;-74
2023/09/13 11:14:12;;;;;;;;;;;;;;;;;;5010978;28;20030;-74
2023/09/13 11:16:41;;;;;;;1.77;0.90;;;;;;;;;;5002334;28;19948;-72
2023/09/13 11:19:10;;;;;;;1.02;0.85;;;;;;;;;;5007791;28;20084;-74
2023/09/13 11:21:46;;;;;;;2.53;1.20;;;;;;;;;;5006645;28;20030;-74
2023/09/13 11:24:12;;;;;;;1.05;0.80;;;;;;;;;;5005971;28;20049;-75
2023/09/13 11:26:54;;;;;;;1.95;1.02;;;;;;;;;;4999030;28;20026;-76
2023/09/13 11:29:23;;;;;;;1.10;0.95;;;;;;;;;;5005746;28;20057;-75
2023/09/13 11:31:56;;;;;;;8.82;1.30;;;;;;;;;;5007900;28;20473;-74
2023/09/13 11:34:22;;;;;;;0.80;0.80;;;;;;;;;;4998442;28;20044;-74
2023/09/13 11:37:07;;;;;;;0.73;0.70;;;;;;;;;;5004864;28;20029;-74
2023/09/13 11:39:34;;;;;;;1.13;0.80;;;;;;;;;;5008505;28;20119;-74
2023/09/13 11:42:04;;;;;;;2.22;1.23;;;;;;;;;;5003503;28;20049;-78
2023/09/13 11:44:30;;;;;;;1.50;1.00;;;;;;;;;;5003253;28;20038;-78
2023/09/13 11:46:56;;;;;;;1.67;1.40;;;;;;;;;;5008842;28;20113;-78
2023/09/13 11:49:23;;;;;;;0.90;0.80;;;;;;;;;;5001011;28;20112;-74
2023/09/13 11:51:53;;;;;;;1.23;0.90;;;;;;;;;;5005465;28;20029;-75
2023/09/13 11:54:19;;;;;;;1.40;1.25;;;;;;;;;;5007867;28;20041;-74
2023/09/13 11:56:45;;;;;;;0.70;0.60;;;;;;;;;;5008007;28;20030;-75
2023/09/13 11:59:12;;;;;;;0.70;0.60;;;;;;;;;;4990489;28;20499;-75
2023/09/13 12:01:45;;;;;;;0.50;0.50;;;;;;;;;;5004716;28;20030;-75
2023/09/13 12:04:13;;;;;;;1.35;0.85;;;;;;;;;;5004851;28;20040;-75
2023/09/13 12:06:43;;;;;;;0.95;0.80;;;;;;;;;;5017266;28;20029;-76
2023/09/13 12:09:27;;;;;;;0.52;0.52;;;;;;;;;;5014520;28;20030;-75
2023/09/13 12:11:55;;;;;;;0.90;0.75;;;;;;;;;;5016499;28;20103;-76
2023/09/13 12:14:25;;;;;;;1.58;0.70;;;;;;;;;;5011071;28;20442;-75
2023/09/13 12:16:51;;;;;;;0.98;0.85;;;;;;;;;;5011526;28;20041;-75
2023/09/13 12:19:18;;;;;;;1.80;1.05;;;;;;;;;;5023345;28;20025;-76
2023/09/13 12:21:45;;;;;;;0.77;0.77;;;;;;;;;;5015238;28;20028;-75
2023/09/13 12:24:13;;;;;;;1.42;0.90;;;;;;;;;;5024857;28;20032;-75
2023/09/13 12:26:40;;;;;;;1.13;0.80;;;;;;;;;;5013136;28;20041;-76
2023/09/13 12:29:06;;;;;;;1.52;0.85;;;;;;;;;;5010347;28;20030;-76
2023/09/13 12:31:32;;;;;;;0.80;0.70;;;;;;;;;;5019347;28;20029;-75
2023/09/13 12:34:01;;;;;;;0.73;0.50;;;;;;;;;;5017760;28;20025;-75
2023/09/13 12:36:27;;;;;;;0.65;0.63;;;;;;;;;;5014923;28;20030;-75
2023/09/13 12:38:55;;;;;;;0.68;0.60;;;;;;;;;;5008583;28;20034;-76
2023/09/13 12:41:21;;;;;;;0.95;0.70;;;;;;;;;;5005641;28;20367;-76
2023/09/13 12:43:51;;;;;;;1.10;0.70;;;;;;;;;;5007641;28;20029;-75
2023/09/13 12:46:18;;;;;;;0.60;0.60;;;;;;;;;;5006791;28;20032;-75
2023/09/13 12:48:45;;;;;;;1.15;0.77;;;;;;;;;;5019201;28;20116;-75
2023/09/13 12:51:11;;;;;;;0.65;0.65;;;;;;;;;;5006467;28;20099;-75
2023/09/13 12:53:38;;;;;;;0.98;0.70;;;;;;;;;;5012466;28;20029;-75
2023/09/13 12:56:04;;;;;;;0.52;0.52;;;;;;;;;;4989576;28;20026;-75
2023/09/13 12:58:31;;;;;;;0.52;0.52;;;;;;;;;;5009435;28;20519;-75
2023/09/13 13:00:59;;;;;;;0.70;0.63;;;;;;;;;;5008912;28;20026;-75
2023/09/13 13:03:28;;;;;;;1.10;0.77;;;;;;;;;;5013461;28;20030;-75
2023/09/13 13:05:55;;;;;;;0.85;0.70;;;;;;;;;;4998080;28;20053;-75
2023/09/13 13:08:32;;;;;;;1.05;0.70;;;;;;;;;;4994821;28;20085;-75
2023/09/13 13:10:59;;;;;;;0.73;0.68;;;;;;;;;;4989134;28;20030;-76
2023/09/13 13:13:36;;;;;;;0.77;0.77;;;;;;;;;;5013496;28;20026;-75
2023/09/13 13:16:03;;;;;;;0.73;0.73;;;;;;;;;;5004859;28;20026;-75
2023/09/13 13:18:30;;;;;;;0.73;0.70;;;;;;;;;;4992385;28;20253;-74
2023/09/13 13:20:56;;;;;;;0.90;0.77;;;;;;;;;;4990200;28;20152;-76
2023/09/13 13:23:23;;;;;;;1.27;0.70;;;;;;;;;;5006499;28;20037;-81
2023/09/13 13:25:50;;;;;;;0.90;0.80;;;;;;;;;;5009279;28;20104;-73
2023/09/13 13:28:16;;;;;;;0.90;0.70;;;;;;;;;;5009476;28;20493;-76
2023/09/13 13:30:42;;;;;;;0.70;0.70;;;;;;;;;;4988844;28;20037;-74
2023/09/13 13:33:08;;;;;;;1.02;0.65;;;;;;;;;;4989199;28;20022;-74
2023/09/13 13:35:34;;;;;;;0.65;0.65;;;;;;;;;;5010861;28;20078;-75
2023/09/13 13:38:00;;;;;;;1.40;0.93;;;;;;;;;;5004346;28;20034;-74
2023/09/13 13:40:26;;;;;;;1.98;0.70;;;;;;;;;;5007350;28;20034;-75
2023/09/13 13:42:52;;;;;;;0.60;0.60;;;;;;;;;;5007022;28;20033;-75
2023/09/13 13:45:18;;;;;;;1.75;1.08;;;;;;;;;;5005491;28;20029;-76
2023/09/13 13:47:45;;;;;;;0.90;0.75;;;;;;;;;;5008391;28;20037;-74
2023/09/13 13:50:11;;;;;;;0.80;0.80;;;;;;;;;;5012538;28;20056;-74
2023/09/13 13:52:37;;;;;;;0.80;0.80;;;;;;;;;;5005527;28;20026;-74
2023/09/13 13:55:03;;;;;;;1.33;1.23;;;;;;;;;;5008628;28;20056;-77
2023/09/13 13:57:41;;;;;;;2.80;1.05;;;;;;;;;;5013996;28;20091;-76
2023/09/13 14:00:09;;;;;;;1.15;0.93;;;;;;;;;;5000219;28;20040;-73
2023/09/13 14:02:36;;;;;;;1.17;0.85;;;;;;;;;;5007001;28;20104;-75
2023/09/13 14:05:04;;;;;;;0.88;0.88;;;;;;;;;;5007214;28;20038;-75
2023/09/13 14:07:30;;;;;;;1.25;0.63;;;;;;;;;;5003520;28;20465;-75
2023/09/13 14:09:55;;;;;;;1.08;0.85;;;;;;;;;;5004704;28;20030;-74
2023/09/13 14:12:21;;;;;;;2.45;1.13;;;;;;;;;;5004715;28;20373;-75
2023/09/13 14:14:47;;;;;;;2.53;0.90;;;;;;;;;;5007753;28;20117;-76
2023/09/13 14:17:13;;;;;;;0.80;0.80;;;;;;;;;;5003239;28;20044;-76
2023/09/13 14:19:40;;;;;;;0.93;0.82;;;;;;;;;;5008506;28;20041;-76
2023/09/13 14:22:06;;;;;;;0.70;0.70;;;;;;;;;;5010920;28;20025;-75
2023/09/13 14:24:32;;;;;;;1.10;0.98;;;;;;;;;;5007458;28;20541;-83
2023/09/13 14:26:58;;;;;;;0.98;0.77;;;;;;;;;;5007271;28;20053;-84
2023/09/13 14:29:24;;;;;;;1.10;1.00;;;;;;;;;;5002764;28;20065;-83
2023/09/13 14:31:55;;;;;;;1.27;0.90;;;;;;;;;;5002539;28;20088;-81
2023/09/13 14:34:25;;;;;;;1.08;0.80;;;;;;;;;;5004958;28;20034;-82
2023/09/13 14:36:51;;;;;;;1.15;0.75;;;;;;;;;;5008174;28;20021;-82
2023/09/13 14:39:20;;;;;;;1.13;1.02;;;;;;;;;;5005784;28;20022;-82
2023/09/13 14:41:51;;;;;;;1.00;0.90;;;;;;;;;;5011269;28;20050;-83
2023/09/13 14:44:17;;;;;;;0.73;0.73;;;;;;;;;;5009620;28;20172;-84
2023/09/13 14:46:43;;;;;;;0.88;0.73;;;;;;;;;;5009541;28;20041;-84